LFMU/BZR METAR and TAF weather

Enter ICAO airport designator
Station Type Date Time Source
LFMU METAR 2021/07/24 20:30 UTC NOAA

LFMU 242030Z AUTO 31009KT CAVOK 26/14 Q1010 NOSIG


Station Type Date Time Source
LFMU Decoded METAR 2021/07/24 20:30 UTC NOAA

Beziers / Vias, France (LFMU) 43-19N 003-21E
Jul 24, 2021 - 04:30 PM EDT / 2021.07.24 2030 UTC
Wind: from the NW (310 degrees) at 10 MPH (9 KT):0
Visibility: greater than 7 mile(s):0
Temperature: 78 F (26 C)
Dew Point: 57 F (14 C)
Relative Humidity: 47%
Pressure (altimeter): 29.83 in. Hg (1010 hPa)
ob: LFMU 242030Z AUTO 31009KT CAVOK 26/14 Q1010 NOSIG
cycle: 20

Station Type Date Time Source
LFMU TAF 2021/07/24 20:37 UTC NOAA

TAF LFMU 242030Z 2420/2515 CNL

Example: see airport list